createdAt,value
2019-01-19T00:02:26.588Z,6.13
2019-01-19T00:05:55.650Z,6.73
2019-01-19T00:08:48.576Z,7.23
2019-01-19T00:11:56.764Z,4.60
2019-01-19T00:14:45.793Z,6.27
2019-01-19T00:18:12.392Z,5.47
2019-01-19T00:21:38.851Z,6.50
2019-01-19T00:24:31.294Z,6.83
2019-01-19T00:27:38.757Z,7.60
2019-01-19T00:30:56.233Z,5.23
2019-01-19T00:34:01.804Z,5.80
2019-01-19T00:36:57.558Z,5.47
2019-01-19T00:40:03.165Z,6.70
2019-01-19T00:43:02.195Z,5.13
2019-01-19T00:46:22.140Z,7.33
2019-01-19T00:49:28.720Z,5.73
2019-01-19T00:53:00.885Z,5.83
2019-01-19T00:56:11.865Z,6.93
2019-01-19T00:59:12.524Z,6.07
2019-01-19T01:02:16.687Z,6.23
2019-01-19T01:05:29.091Z,7.60
2019-01-19T01:08:48.684Z,6.93
2019-01-19T01:11:57.824Z,6.10
2019-01-19T01:15:18.449Z,6.60
2019-01-19T01:17:59.483Z,7.70
2019-01-19T01:21:04.944Z,7.87
2019-01-19T01:23:57.826Z,7.03
2019-01-19T01:26:55.317Z,6.57
2019-01-19T01:30:06.097Z,7.47
2019-01-19T01:32:58.005Z,4.80
2019-01-19T01:36:30.222Z,7.67
2019-01-19T01:39:29.825Z,6.23
2019-01-19T01:42:51.166Z,6.00
2019-01-19T01:46:17.388Z,7.77
2019-01-19T01:49:24.505Z,8.27
2019-01-19T01:52:31.320Z,6.93
2019-01-19T01:55:15.897Z,6.73
2019-01-19T01:58:25.291Z,7.37
2019-01-19T02:01:25.601Z,7.43
2019-01-19T02:04:25.921Z,6.33
2019-01-19T02:07:21.271Z,7.70
2019-01-19T02:10:21.054Z,9.03
2019-01-19T02:13:03.955Z,8.53
2019-01-19T02:16:21.356Z,6.37
2019-01-19T02:19:36.573Z,9.30
2019-01-19T02:22:41.340Z,7.07
2019-01-19T02:25:49.370Z,8.00
2019-01-19T02:28:54.247Z,9.03
2019-01-19T02:31:59.788Z,10.60
2019-01-19T02:34:42.709Z,12.67
2019-01-19T02:37:38.030Z,7.43
2019-01-19T02:41:06.887Z,7.77
2019-01-19T02:43:58.509Z,8.50
2019-01-19T02:47:26.384Z,6.03
2019-01-19T02:50:39.159Z,7.70
2019-01-19T02:53:48.827Z,8.27
2019-01-19T02:56:35.750Z,7.67
2019-01-19T02:59:29.795Z,8.83
2019-01-19T03:02:28.864Z,8.10
2019-01-19T03:05:10.340Z,7.47
2019-01-19T03:08:16.773Z,8.50
2019-01-19T03:11:25.361Z,7.57
2019-01-19T03:14:23.810Z,9.10
2019-01-19T03:17:35.129Z,9.90
2019-01-19T03:20:45.640Z,6.97
2019-01-19T03:23:56.421Z,9.27
2019-01-19T03:27:01.971Z,7.07
2019-01-19T03:29:46.470Z,7.60
2019-01-19T03:32:42.822Z,7.20
2019-01-19T03:36:04.117Z,9.00
2019-01-19T03:39:02.974Z,7.87
2019-01-19T03:42:13.470Z,11.20
2019-01-19T03:45:33.275Z,8.27
2019-01-19T03:48:36.335Z,6.77
2019-01-19T03:51:19.118Z,8.40
2019-01-19T03:54:36.410Z,8.30
2019-01-19T03:57:24.637Z,10.90
2019-01-19T04:00:36.637Z,6.73
2019-01-19T04:03:46.258Z,7.83
2019-01-19T04:06:44.730Z,8.30
2019-01-19T04:09:31.039Z,9.70
2019-01-19T04:12:59.978Z,8.90
2019-01-19T04:16:20.313Z,8.70
2019-01-19T04:19:40.481Z,7.23
2019-01-19T04:22:42.117Z,8.13
2019-01-19T04:25:42.726Z,8.07
2019-01-19T04:28:14.815Z,8.77
2019-01-19T04:30:44.416Z,8.63
2019-01-19T04:33:14.105Z,10.13
2019-01-19T04:35:43.692Z,10.27
2019-01-19T04:38:13.270Z,10.70
2019-01-19T04:40:42.855Z,10.77
2019-01-19T04:43:13.362Z,9.77
2019-01-19T04:45:42.955Z,9.10
2019-01-19T04:48:12.610Z,8.27
2019-01-19T04:50:42.202Z,9.13
2019-01-19T04:53:11.783Z,10.20
2019-01-19T04:55:41.381Z,9.50
2019-01-19T04:58:10.968Z,8.23
2019-01-19T05:00:41.561Z,8.63
2019-01-19T05:03:11.122Z,8.03
2019-01-19T05:05:40.688Z,8.53
2019-01-19T05:08:10.281Z,9.33
2019-01-19T05:10:39.837Z,7.73
2019-01-19T05:13:09.417Z,10.43
2019-01-19T05:15:39.072Z,8.60
2019-01-19T05:18:09.444Z,9.00
2019-01-19T05:20:41.453Z,11.00
2019-01-19T05:23:11.112Z,8.73
2019-01-19T05:25:40.661Z,9.23
2019-01-19T05:28:10.210Z,7.40
2019-01-19T05:30:39.783Z,7.37
2019-01-19T05:33:09.433Z,8.93
2019-01-19T05:35:39.006Z,8.33
2019-01-19T05:38:08.574Z,9.57
2019-01-19T05:40:38.163Z,9.83
2019-01-19T05:43:07.826Z,7.50
2019-01-19T05:45:37.462Z,9.70
2019-01-19T05:48:08.524Z,9.43
2019-01-19T05:50:38.140Z,9.47
2019-01-19T05:53:07.729Z,7.10
2019-01-19T05:55:37.257Z,7.30
2019-01-19T05:58:06.885Z,7.70
2019-01-19T06:00:37.290Z,8.53
2019-01-19T06:03:07.816Z,9.07
2019-01-19T06:05:39.043Z,8.00
2019-01-19T06:08:08.602Z,8.43
2019-01-19T06:10:38.171Z,8.43
2019-01-19T06:13:07.763Z,8.83
2019-01-19T06:15:37.365Z,8.83
2019-01-19T06:18:08.564Z,8.57
2019-01-19T06:20:38.153Z,8.73
2019-01-19T06:23:07.767Z,9.57
2019-01-19T06:25:37.327Z,7.87
2019-01-19T06:28:06.882Z,7.13
2019-01-19T06:30:36.455Z,9.87
2019-01-19T06:33:07.620Z,9.17
2019-01-19T06:35:37.257Z,8.97
2019-01-19T06:38:06.808Z,8.93
2019-01-19T06:40:36.347Z,7.67
2019-01-19T06:43:05.968Z,8.57
2019-01-19T06:45:35.552Z,8.00
2019-01-19T06:48:07.497Z,8.53
2019-01-19T06:50:37.050Z,8.97
2019-01-19T06:53:06.630Z,7.83
2019-01-19T06:55:39.038Z,8.83
2019-01-19T06:58:08.603Z,7.73
2019-01-19T07:00:38.218Z,8.13
2019-01-19T07:03:07.772Z,6.27
2019-01-19T07:05:37.372Z,7.87
2019-01-19T07:08:06.953Z,9.70
2019-01-19T07:10:36.519Z,8.23
2019-01-19T07:13:06.109Z,6.73
2019-01-19T07:15:35.677Z,7.20
2019-01-19T07:18:05.294Z,7.87
2019-01-19T07:20:34.857Z,9.93
2019-01-19T07:23:04.377Z,8.17
2019-01-19T07:25:34.833Z,8.10
2019-01-19T07:28:04.401Z,9.10
2019-01-19T07:30:35.608Z,8.70
2019-01-19T07:33:05.359Z,7.57
2019-01-19T07:35:34.948Z,8.50
2019-01-19T07:38:04.507Z,7.37
2019-01-19T07:40:34.065Z,8.50
2019-01-19T07:43:07.697Z,7.17
2019-01-19T07:45:37.538Z,7.20
2019-01-19T07:48:08.834Z,9.33
2019-01-19T07:50:39.438Z,7.93
2019-01-19T07:53:09.034Z,7.57
2019-01-19T07:55:38.609Z,7.80
2019-01-19T07:58:08.195Z,9.10
2019-01-19T08:00:37.855Z,6.90
2019-01-19T08:03:07.395Z,7.83
2019-01-19T08:05:38.372Z,8.13
2019-01-19T08:08:07.953Z,6.70
2019-01-19T08:10:38.130Z,7.40
2019-01-19T08:13:07.681Z,6.73
2019-01-19T08:15:37.277Z,8.37
2019-01-19T08:18:06.940Z,7.13
2019-01-19T08:20:36.523Z,8.47
2019-01-19T08:23:06.121Z,6.90
2019-01-19T08:25:38.648Z,7.20
2019-01-19T08:28:08.218Z,8.90
2019-01-19T08:30:37.784Z,7.37
2019-01-19T08:33:07.359Z,7.47
2019-01-19T08:35:38.153Z,8.20
2019-01-19T08:38:07.713Z,7.37
2019-01-19T08:40:37.369Z,7.67
2019-01-19T08:43:21.829Z,6.90
2019-01-19T08:45:51.393Z,7.47
2019-01-19T08:48:21.361Z,7.47
2019-01-19T08:50:50.961Z,7.13
2019-01-19T08:53:20.565Z,9.47
2019-01-19T08:55:50.161Z,6.13
2019-01-19T08:58:19.754Z,7.97
2019-01-19T09:00:49.318Z,6.93
2019-01-19T09:03:18.885Z,7.20
2019-01-19T09:05:48.480Z,7.30
2019-01-19T09:08:18.079Z,7.20
2019-01-19T09:10:47.656Z,7.33
2019-01-19T09:13:17.246Z,7.33
2019-01-19T09:15:46.850Z,8.90
2019-01-19T09:18:16.426Z,8.23
2019-01-19T09:20:46.002Z,6.93
2019-01-19T09:23:22.776Z,7.00
2019-01-19T09:25:52.456Z,7.90
2019-01-19T09:28:22.024Z,7.80
2019-01-19T09:30:51.584Z,6.07
2019-01-19T09:33:21.180Z,8.77
2019-01-19T09:35:52.392Z,5.83
2019-01-19T09:38:22.018Z,5.97
2019-01-19T09:40:52.585Z,7.80
2019-01-19T09:43:22.101Z,6.07
2019-01-19T09:45:51.731Z,6.93
2019-01-19T09:48:21.319Z,6.20
2019-01-19T09:50:50.946Z,6.50
2019-01-19T09:53:20.540Z,5.73
2019-01-19T09:55:50.147Z,8.10
2019-01-19T09:58:19.768Z,5.97
2019-01-19T10:00:49.366Z,7.03
2019-01-19T10:03:18.982Z,6.90
2019-01-19T10:05:48.576Z,6.77
2019-01-19T10:08:18.166Z,5.27
2019-01-19T10:10:47.804Z,7.00
2019-01-19T10:13:19.128Z,6.13
2019-01-19T10:15:48.884Z,5.37
2019-01-19T10:18:20.121Z,5.80
2019-01-19T10:20:49.722Z,5.53
2019-01-19T10:23:20.353Z,5.17
2019-01-19T10:25:49.948Z,5.93
2019-01-19T10:28:19.558Z,6.17
2019-01-19T10:31:05.000Z,6.20
2019-01-19T10:33:38.343Z,4.90
2019-01-19T10:36:07.958Z,6.33
2019-01-19T10:38:37.525Z,6.53
2019-01-19T10:41:07.121Z,6.20
2019-01-19T10:43:36.746Z,4.30
2019-01-19T10:46:06.451Z,4.93
2019-01-19T10:48:36.140Z,4.87
2019-01-19T10:51:06.107Z,6.63
2019-01-19T10:53:35.688Z,5.90
2019-01-19T10:56:05.388Z,4.53
2019-01-19T10:58:35.018Z,4.00
2019-01-19T11:01:04.720Z,5.80
2019-01-19T11:03:34.374Z,4.83
2019-01-19T11:06:05.092Z,5.47
2019-01-19T11:08:34.724Z,4.40
2019-01-19T11:11:04.375Z,4.63
2019-01-19T11:13:34.068Z,4.80
2019-01-19T11:16:03.656Z,4.87
2019-01-19T11:18:34.959Z,5.90
2019-01-19T11:21:05.548Z,4.23
2019-01-19T11:23:39.763Z,3.60
2019-01-19T11:26:06.536Z,5.00
2019-01-19T11:28:36.298Z,4.13
2019-01-19T11:31:05.968Z,5.63
2019-01-19T11:33:35.592Z,3.80
2019-01-19T11:36:05.274Z,6.03
2019-01-19T11:38:34.948Z,3.60
2019-01-19T11:41:04.634Z,5.10
2019-01-19T11:43:34.323Z,4.20
2019-01-19T11:46:04.041Z,4.33
2019-01-19T11:48:33.669Z,3.90
2019-01-19T11:51:03.390Z,3.60
2019-01-19T11:53:33.049Z,4.50
2019-01-19T11:56:02.637Z,3.67
2019-01-19T11:58:32.410Z,4.77
2019-01-19T12:01:02.068Z,4.03
2019-01-19T12:03:31.707Z,3.53
2019-01-19T12:06:03.114Z,4.27
2019-01-19T12:08:32.865Z,4.73
2019-01-19T12:11:02.599Z,5.10
2019-01-19T12:13:34.790Z,3.00
2019-01-19T12:16:04.553Z,3.83
2019-01-19T12:18:34.501Z,4.00
2019-01-19T12:21:04.324Z,4.57
2019-01-19T12:23:33.961Z,4.60
2019-01-19T12:26:03.547Z,4.80
2019-01-19T12:28:33.105Z,3.27
2019-01-19T12:31:02.786Z,4.60
2019-01-19T12:33:32.514Z,3.57
2019-01-19T12:36:02.188Z,4.00
2019-01-19T12:38:31.805Z,3.70
2019-01-19T12:41:01.521Z,3.57
2019-01-19T12:43:31.181Z,3.63
2019-01-19T12:46:03.349Z,3.33
2019-01-19T12:48:32.961Z,3.80
2019-01-19T12:51:05.004Z,3.00
2019-01-19T12:53:34.707Z,3.40
2019-01-19T12:56:04.447Z,2.77
2019-01-19T12:58:34.098Z,3.03
2019-01-19T13:01:03.826Z,4.57
2019-01-19T13:03:33.455Z,4.93
2019-01-19T13:06:25.188Z,2.63
2019-01-19T13:08:55.112Z,3.07
2019-01-19T13:12:21.328Z,3.30
2019-01-19T13:15:01.310Z,3.70
2019-01-19T13:18:15.882Z,4.33
2019-01-19T13:21:27.891Z,3.67
2019-01-19T13:24:36.314Z,2.93
2019-01-19T13:27:35.135Z,3.20
2019-01-19T13:31:00.130Z,3.17
2019-01-19T13:33:49.271Z,2.87
2019-01-19T13:36:58.962Z,3.00
2019-01-19T13:39:49.179Z,3.07
2019-01-19T13:42:58.353Z,2.90
2019-01-19T13:46:07.261Z,2.67
2019-01-19T13:49:06.441Z,2.90
2019-01-19T13:52:04.509Z,3.20
2019-01-19T13:54:54.150Z,2.83
2019-01-19T13:57:52.026Z,2.97
2019-01-19T14:01:21.068Z,13.57
2019-01-19T14:04:22.661Z,20.63
2019-01-19T14:07:45.886Z,12.33
2019-01-19T14:10:49.558Z,14.47
2019-01-19T14:14:11.112Z,13.67
2019-01-19T14:17:18.233Z,10.53
2019-01-19T14:20:20.640Z,15.80
2019-01-19T14:23:17.894Z,10.63
2019-01-19T14:26:38.062Z,22.97
2019-01-19T14:29:47.707Z,14.40
2019-01-19T14:32:41.876Z,19.00
2019-01-19T14:35:23.604Z,6.30
2019-01-19T14:38:41.106Z,15.27
2019-01-19T14:41:49.739Z,16.60
2019-01-19T14:44:53.033Z,9.73
2019-01-19T14:47:40.141Z,11.93
2019-01-19T14:50:39.166Z,9.97
2019-01-19T14:53:40.617Z,10.17
2019-01-19T14:56:52.089Z,11.33
2019-01-19T14:59:37.977Z,8.90
2019-01-19T15:03:01.424Z,9.67
2019-01-19T15:06:07.436Z,9.53
2019-01-19T15:09:10.683Z,5.90
2019-01-19T15:12:16.602Z,8.20
2019-01-19T15:15:19.761Z,8.23
2019-01-19T15:18:21.464Z,8.97
2019-01-19T15:21:44.756Z,5.50
2019-01-19T15:25:04.606Z,10.27
2019-01-19T15:28:01.063Z,3.70
2019-01-19T15:31:16.224Z,6.80
2019-01-19T15:34:39.318Z,4.63
2019-01-19T15:37:51.266Z,5.47
2019-01-19T15:41:17.533Z,5.50
2019-01-19T15:44:35.005Z,5.23
2019-01-19T15:47:37.973Z,6.83
2019-01-19T15:51:04.327Z,7.43
2019-01-19T15:53:45.429Z,4.93
2019-01-19T15:56:55.507Z,6.07
2019-01-19T16:00:05.721Z,4.63
2019-01-19T16:03:02.973Z,6.93
2019-01-19T16:06:02.877Z,11.63
2019-01-19T16:09:02.848Z,7.57
2019-01-19T16:12:07.672Z,8.50
2019-01-19T16:15:23.452Z,8.43
2019-01-19T16:18:21.290Z,8.57
2019-01-19T16:21:34.252Z,3.80
2019-01-19T16:24:14.749Z,9.03
2019-01-19T16:27:28.058Z,10.07
2019-01-19T16:30:25.136Z,4.30
2019-01-19T16:33:28.344Z,8.47
2019-01-19T16:36:42.660Z,6.67
2019-01-19T16:39:35.812Z,8.03
2019-01-19T16:42:44.083Z,11.03
2019-01-19T16:45:51.338Z,4.73
2019-01-19T16:49:06.604Z,5.20
2019-01-19T16:52:10.193Z,4.07
2019-01-19T16:54:56.220Z,8.27
2019-01-19T16:58:09.609Z,2.73
2019-01-19T17:01:17.771Z,4.43
2019-01-19T17:04:19.996Z,7.13
2019-01-19T17:07:12.222Z,5.07
2019-01-19T17:10:04.862Z,6.20
2019-01-19T17:12:48.232Z,5.03
2019-01-19T17:16:02.424Z,2.93
2019-01-19T17:19:12.879Z,4.60
2019-01-19T17:22:16.253Z,5.63
2019-01-19T17:25:24.477Z,2.87
2019-01-19T17:28:44.666Z,4.43
2019-01-19T17:32:04.745Z,7.50
2019-01-19T17:34:57.248Z,5.03
2019-01-19T17:37:55.521Z,3.97
2019-01-19T17:40:53.019Z,3.13
2019-01-19T17:43:53.701Z,4.00
2019-01-19T17:46:58.271Z,5.23
2019-01-19T17:50:00.267Z,5.07
2019-01-19T17:53:16.475Z,5.87
2019-01-19T17:56:06.445Z,4.30
2019-01-19T17:59:03.349Z,3.13
2019-01-19T18:02:10.320Z,3.80
2019-01-19T18:04:53.681Z,4.63
2019-01-19T18:08:11.119Z,6.07
2019-01-19T18:11:34.601Z,2.80
2019-01-19T18:14:30.415Z,2.70
2019-01-19T18:17:29.019Z,2.40
2019-01-19T18:20:32.730Z,3.70
2019-01-19T18:23:38.517Z,7.77
2019-01-19T18:27:01.697Z,3.87
2019-01-19T18:29:55.860Z,2.70
2019-01-19T18:33:29.734Z,4.87
2019-01-19T18:36:32.609Z,2.97
2019-01-19T18:39:26.384Z,14.10
2019-01-19T18:42:46.324Z,14.70
2019-01-19T18:46:00.234Z,29.87
2019-01-19T18:49:42.033Z,34.27
2019-01-19T18:53:01.177Z,30.90
2019-01-19T18:56:18.126Z,30.23
2019-01-19T18:59:13.461Z,36.50
2019-01-19T19:02:13.220Z,63.83
2019-01-19T19:05:30.324Z,37.73
2019-01-19T19:08:35.771Z,63.77
2019-01-19T19:11:42.732Z,44.80
2019-01-19T19:14:50.498Z,29.60
2019-01-19T19:17:56.117Z,33.93
2019-01-19T19:21:07.101Z,37.93
2019-01-19T19:24:26.955Z,33.07
2019-01-19T19:27:36.953Z,21.73
2019-01-19T19:30:21.912Z,44.57
2019-01-19T19:33:39.513Z,41.33
2019-01-19T19:36:49.215Z,26.47
2019-01-19T19:39:48.086Z,28.20
2019-01-19T19:42:57.963Z,33.30
2019-01-19T19:45:56.703Z,49.87
2019-01-19T19:49:13.477Z,37.90
2019-01-19T19:52:01.377Z,20.13
2019-01-19T19:54:33.997Z,21.40
2019-01-19T19:57:04.735Z,25.87
2019-01-19T19:59:34.369Z,21.30
2019-01-19T20:02:04.023Z,21.27
2019-01-19T20:04:33.653Z,30.40
2019-01-19T20:07:03.284Z,24.43
2019-01-19T20:09:32.902Z,25.90
2019-01-19T20:12:07.441Z,22.00
2019-01-19T20:14:37.194Z,30.20
2019-01-19T20:17:06.942Z,35.53
2019-01-19T20:19:36.629Z,23.90
2019-01-19T20:22:06.297Z,17.53
2019-01-19T20:24:35.958Z,23.30
2019-01-19T20:27:05.627Z,28.63
2019-01-19T20:29:35.689Z,16.53
2019-01-19T20:32:05.653Z,12.50
2019-01-19T20:34:35.277Z,28.77
2019-01-19T20:37:05.006Z,18.10
2019-01-19T20:39:34.627Z,13.77
2019-01-19T20:42:04.241Z,20.13
2019-01-19T20:44:33.846Z,20.27
2019-01-19T20:47:05.098Z,16.80
2019-01-19T20:49:34.759Z,11.93
2019-01-19T20:52:04.382Z,18.47
2019-01-19T20:54:34.016Z,16.83
2019-01-19T20:57:03.652Z,8.93
2019-01-19T20:59:33.281Z,17.90
2019-01-19T21:02:03.742Z,18.30
2019-01-19T21:04:33.353Z,19.47
2019-01-19T21:07:02.997Z,11.57
2019-01-19T21:09:33.645Z,19.17
2019-01-19T21:12:04.075Z,8.37
2019-01-19T21:14:33.912Z,15.70
2019-01-19T21:17:03.897Z,13.40
2019-01-19T21:19:34.545Z,13.67
2019-01-19T21:22:04.182Z,10.47
2019-01-19T21:24:34.050Z,14.53
2019-01-19T21:27:03.806Z,14.00
2019-01-19T21:29:33.447Z,7.20
2019-01-19T21:32:03.203Z,8.17
2019-01-19T21:34:32.946Z,14.40
2019-01-19T21:37:02.606Z,10.73
2019-01-19T21:39:32.234Z,14.37
2019-01-19T21:42:02.069Z,9.30
2019-01-19T21:44:33.501Z,20.67
2019-01-19T21:47:03.269Z,7.13
2019-01-19T21:49:32.882Z,11.73
2019-01-19T21:52:02.681Z,5.80
2019-01-19T21:54:32.395Z,9.40
2019-01-19T21:57:01.995Z,13.63
2019-01-19T21:59:31.740Z,10.90
2019-01-19T22:02:01.505Z,12.10
2019-01-19T22:04:31.093Z,11.93
2019-01-19T22:07:00.702Z,10.90
2019-01-19T22:09:30.294Z,10.87
2019-01-19T22:11:59.909Z,4.93
2019-01-19T22:14:29.517Z,10.13
2019-01-19T22:16:59.113Z,12.45
2019-01-19T22:19:28.687Z,22.60
2019-01-19T22:21:58.280Z,10.23
2019-01-19T22:24:27.891Z,9.10
2019-01-19T22:26:57.873Z,14.13
2019-01-19T22:29:27.585Z,8.53
2019-01-19T22:31:57.161Z,12.30
2019-01-19T22:34:26.773Z,12.73
2019-01-19T22:36:56.409Z,9.13
2019-01-19T22:39:26.056Z,11.20
2019-01-19T22:41:55.714Z,5.27
2019-01-19T22:44:25.322Z,8.40
2019-01-19T22:46:54.931Z,6.33
2019-01-19T22:49:24.547Z,12.13
2019-01-19T22:51:54.142Z,6.73
2019-01-19T22:54:23.848Z,5.37
2019-01-19T22:56:53.587Z,10.27
2019-01-19T22:59:23.190Z,15.03
2019-01-19T23:02:05.366Z,7.57
2019-01-19T23:04:34.981Z,8.30
2019-01-19T23:07:04.594Z,7.27
2019-01-19T23:09:35.525Z,12.37
2019-01-19T23:12:05.169Z,3.83
2019-01-19T23:14:35.823Z,8.87
2019-01-19T23:17:05.519Z,4.93
2019-01-19T23:19:35.173Z,5.93
2019-01-19T23:22:04.801Z,5.90
2019-01-19T23:24:34.429Z,7.03
2019-01-19T23:27:08.669Z,10.63
2019-01-19T23:29:38.320Z,7.77
2019-01-19T23:32:07.980Z,7.93
2019-01-19T23:34:39.247Z,5.87
2019-01-19T23:37:08.874Z,8.27
2019-01-19T23:39:38.493Z,5.67
2019-01-19T23:42:08.090Z,3.50
2019-01-19T23:44:37.640Z,6.03
2019-01-19T23:47:07.281Z,7.03
2019-01-19T23:49:36.909Z,12.00
2019-01-19T23:52:06.510Z,6.90
2019-01-19T23:54:36.101Z,9.50
2019-01-19T23:57:05.702Z,5.97
2019-01-19T23:59:35.349Z,5.00
